Stoney Creek, Canada
Current Conditions -  °F | °C
As of 8:40 PM on Monday 20 Oct 2014 (Local Time) from CYHM Reporting Station
Rain Showers Rain Showers  
Wind Chill: 52°   Ceiling: 600
Heat Index: 52°   Visibility: 5mi
Dew Point: 50°   Wind: 7mph
Humidity: 94%   Direction: 200°SSW
Pressure: 29.8"   Gusts: NA
Location:  43.21°N, 79.69°W
Report Text: CYHM 210040Z 20006KT 190V250 5SM -SHRA BR BKN006 BKN018 OVC058 11/10 A2980 RMK SC5SC2SC1 SLP096
Loading
Personal Weather Stations






























Interactive Weather Map
Tropical Storm Tracking
New forecast layout! Learn more

10-Day Weather Forecast

Advertisements
Track Severe Weather on mobile